Time;durP1;ratioP1;P1;durP2;ratioP2;P2;SDS_P1;SDS_P2;PMS_P1;PMS_P2;Temp;Humidity;BMP_temperature;BMP_pressure;BME280_temperature;BME280_humidity;BME280_pressure;Samples;Min_cycle;Max_cycle;Signal;HPM_P1;HPM_P2
2022/12/03 00:01:21;;;;;;;12.80;10.60;;;;;;;;;;108326;1269;22883;-35
2022/12/03 00:03:54;;;;;;;11.60;10.10;;;;;;;;;;108284;1269;22555;-34
2022/12/03 00:06:27;;;;;;;12.60;10.40;;;;;;;;;;108271;1278;22675;-34
2022/12/03 00:08:59;;;;;;;13.30;10.30;;;;;;;;;;108240;1278;22620;-34
2022/12/03 00:11:31;;;;;;;12.40;10.20;;;;;;;;;;108223;1278;22578;-34
2022/12/03 00:14:04;;;;;;;12.30;9.90;;;;;;;;;;108216;1273;22567;-34
2022/12/03 00:16:36;;;;;;;12.60;10.00;;;;;;;;;;108324;1268;22557;-34
2022/12/03 00:19:08;;;;;;;11.90;10.00;;;;;;;;;;108327;1276;25637;-34
2022/12/03 00:21:41;;;;;;;13.00;10.00;;;;;;;;;;108332;1276;22533;-34
2022/12/03 00:24:13;;;;;;;13.10;10.00;;;;;;;;;;108252;1275;22571;-34
2022/12/03 00:26:45;;;;;;;12.80;10.00;;;;;;;;;;108226;1273;22585;-35
2022/12/03 00:29:20;;;;;;;13.20;10.40;;;;;;;;;;108243;1275;22570;-34
2022/12/03 00:31:52;;;;;;;13.20;10.00;;;;;;;;;;108247;1278;22547;-34
2022/12/03 00:34:24;;;;;;;12.50;9.70;;;;;;;;;;108210;1276;22675;-34
2022/12/03 00:36:57;;;;;;;12.10;9.60;;;;;;;;;;108334;1275;22576;-34
2022/12/03 00:39:30;;;;;;;12.90;9.90;;;;;;;;;;108366;1272;22568;-33
2022/12/03 00:42:02;;;;;;;13.30;9.90;;;;;;;;;;108349;1275;22552;-34
2022/12/03 00:44:35;;;;;;;12.90;10.20;;;;;;;;;;108158;1278;22552;-34
2022/12/03 00:47:12;;;;;;;13.60;9.80;;;;;;;;;;108289;1269;23153;-34
2022/12/03 00:49:44;;;;;;;12.20;9.40;;;;;;;;;;108210;1273;22562;-35
2022/12/03 00:52:16;;;;;;;12.40;9.40;;;;;;;;;;108232;1275;22557;-35
2022/12/03 00:54:51;;;;;;;13.10;9.50;;;;;;;;;;108233;1277;24961;-35
2022/12/03 00:57:24;;;;;;;12.70;9.70;;;;;;;;;;108309;1275;22619;-35
2022/12/03 01:00:00;;;;;;;14.00;10.30;;;;;;;;;;108199;1275;22569;-35
2022/12/03 01:02:33;;;;;;;12.20;9.10;;;;;;;;;;108310;1275;25367;-35
2022/12/03 01:05:07;;;;;;;13.90;10.90;;;;;;;;;;108259;1275;22572;-35
2022/12/03 01:07:40;;;;;;;13.90;9.70;;;;;;;;;;108210;1278;22574;-35
2022/12/03 01:10:14;;;;;;;12.40;9.80;;;;;;;;;;108224;1275;22575;-34
2022/12/03 01:12:46;;;;;;;12.00;9.30;;;;;;;;;;108245;1275;25247;-35
2022/12/03 01:15:20;;;;;;;13.20;9.60;;;;;;;;;;108187;1275;22576;-34
2022/12/03 01:17:53;;;;;;;12.00;9.70;;;;;;;;;;108304;1276;25503;-35
2022/12/03 01:20:26;;;;;;;13.10;9.70;;;;;;;;;;108326;1275;25856;-34
2022/12/03 01:22:59;;;;;;;12.80;9.30;;;;;;;;;;108353;1277;22571;-35
2022/12/03 01:25:32;;;;;;;13.40;9.90;;;;;;;;;;108292;1275;22671;-34
2022/12/03 01:28:05;;;;;;;11.50;9.30;;;;;;;;;;108242;1275;22592;-34
2022/12/03 01:32:15;;;;;;;12.80;9.30;;;;;;;;;;108230;1275;22544;-35
2022/12/03 01:33:32;;;;;;;12.70;9.90;;;;;;;;;;108230;1272;25432;-35
2022/12/03 01:36:05;;;;;;;12.70;9.80;;;;;;;;;;108194;1275;25211;-35
2022/12/03 01:38:37;;;;;;;13.00;10.20;;;;;;;;;;108338;1275;24158;-35
2022/12/03 01:41:11;;;;;;;12.10;9.70;;;;;;;;;;108328;1275;22565;-35
2022/12/03 01:43:44;;;;;;;13.60;10.00;;;;;;;;;;108317;1275;22740;-35
2022/12/03 01:46:21;;;;;;;13.50;10.30;;;;;;;;;;108253;1275;22555;-34
2022/12/03 01:48:56;;;;;;;13.60;10.00;;;;;;;;;;108233;1270;22620;-35
2022/12/03 01:51:32;;;;;;;13.10;9.70;;;;;;;;;;108216;1275;22576;-35
2022/12/03 01:54:08;;;;;;;12.50;10.10;;;;;;;;;;108231;1272;24253;-35
2022/12/03 01:56:40;;;;;;;13.70;10.10;;;;;;;;;;108239;1276;22564;-35
2022/12/03 01:59:21;;;;;;;13.50;9.70;;;;;;;;;;108346;1272;22564;-35
2022/12/03 02:01:53;;;;;;;12.30;9.40;;;;;;;;;;108322;1275;22560;-36
2022/12/03 02:04:26;;;;;;;12.20;9.50;;;;;;;;;;108306;1275;24217;-34
2022/12/03 02:07:19;;;;;;;12.40;9.50;;;;;;;;;;108205;1278;22561;-34
2022/12/03 02:09:53;;;;;;;13.60;9.50;;;;;;;;;;108224;1272;22567;-35
2022/12/03 02:12:34;;;;;;;13.40;9.60;;;;;;;;;;108213;1276;24132;-34
2022/12/03 02:15:10;;;;;;;13.00;9.80;;;;;;;;;;108203;1271;22572;-34
2022/12/03 02:17:43;;;;;;;12.90;10.00;;;;;;;;;;108245;1275;22567;-34
2022/12/03 02:20:16;;;;;;;;;;;;;;;;;;108300;1278;22543;-34
2022/12/03 02:22:59;;;;;;;12.20;9.60;;;;;;;;;;108351;1275;25833;-35
2022/12/03 02:25:35;;;;;;;12.40;9.30;;;;;;;;;;108292;1275;22568;-35
2022/12/03 02:28:10;;;;;;;12.10;8.70;;;;;;;;;;108222;1275;22570;-35
2022/12/03 02:30:42;;;;;;;11.30;8.80;;;;;;;;;;108268;1278;25518;-35
2022/12/03 02:33:17;;;;;;;13.50;9.30;;;;;;;;;;108230;1272;25408;-34
2022/12/03 02:35:49;;;;;;;12.20;9.40;;;;;;;;;;108223;1278;23910;-34
2022/12/03 02:38:27;;;;;;;13.30;10.10;;;;;;;;;;108312;1275;22571;-34
2022/12/03 02:41:06;;;;;;;13.10;9.60;;;;;;;;;;108352;1275;22558;-34
2022/12/03 02:43:38;;;;;;;12.40;9.20;;;;;;;;;;108355;1275;23889;-34
2022/12/03 02:46:12;;;;;;;13.20;9.70;;;;;;;;;;108293;1275;22568;-34
2022/12/03 02:48:47;;;;;;;11.60;8.90;;;;;;;;;;108220;1278;22585;-34
2022/12/03 02:51:19;;;;;;;12.00;9.50;;;;;;;;;;108232;1278;22570;-34
2022/12/03 02:53:55;;;;;;;12.30;8.70;;;;;;;;;;108221;1277;22564;-34
2022/12/03 02:56:31;;;;;;;12.20;8.90;;;;;;;;;;108233;1278;22564;-34
2022/12/03 02:59:06;;;;;;;11.90;8.80;;;;;;;;;;108301;1275;22565;-34
2022/12/03 03:01:38;;;;;;;10.90;8.50;;;;;;;;;;108358;1277;22563;-34
2022/12/03 03:04:11;;;;;;;11.90;8.60;;;;;;;;;;108324;1277;22565;-34
2022/12/03 03:06:45;;;;;;;11.20;9.00;;;;;;;;;;108302;1269;22526;-34
2022/12/03 03:09:19;;;;;;;11.30;8.50;;;;;;;;;;108210;1278;22659;-34
2022/12/03 03:11:51;;;;;;;11.00;8.50;;;;;;;;;;108233;1278;22559;-34
2022/12/03 03:14:26;;;;;;;12.00;8.50;;;;;;;;;;108239;1276;22599;-34
2022/12/03 03:16:59;;;;;;;10.80;8.10;;;;;;;;;;108200;1278;22552;-34
2022/12/03 03:19:35;;;;;;;10.80;8.60;;;;;;;;;;108248;1280;22617;-34
2022/12/03 03:22:08;;;;;;;11.20;9.20;;;;;;;;;;108346;1277;22589;-34
2022/12/03 03:24:43;;;;;;;10.60;7.90;;;;;;;;;;108294;1278;22606;-34
2022/12/03 03:27:16;;;;;;;10.90;8.00;;;;;;;;;;108274;1275;25460;-34
2022/12/03 03:29:48;;;;;;;9.80;7.80;;;;;;;;;;108193;1278;24185;-34
2022/12/03 03:32:24;;;;;;;9.90;8.00;;;;;;;;;;108226;1276;25262;-34
2022/12/03 03:34:56;;;;;;;10.90;8.10;;;;;;;;;;108225;1276;25392;-34
2022/12/03 03:37:29;;;;;;;9.90;7.80;;;;;;;;;;108194;1269;22588;-34
2022/12/03 03:40:02;;;;;;;10.60;8.20;;;;;;;;;;108280;1270;22910;-34
2022/12/03 03:42:35;;;;;;;10.70;8.40;;;;;;;;;;108355;1276;25415;-34
2022/12/03 03:45:10;;;;;;;10.10;7.60;;;;;;;;;;108372;1275;22565;-34
2022/12/03 03:47:43;;;;;;;9.60;7.50;;;;;;;;;;108333;1275;22572;-34
2022/12/03 03:50:16;;;;;;;10.60;8.00;;;;;;;;;;108120;1272;22631;-34
2022/12/03 03:52:49;;;;;;;10.50;8.20;;;;;;;;;;108185;1278;22590;-34
2022/12/03 03:55:25;;;;;;;10.10;7.40;;;;;;;;;;108166;1278;22653;-34
2022/12/03 03:57:57;;;;;;;9.20;7.40;;;;;;;;;;108126;1277;22565;-35
2022/12/03 04:00:30;;;;;;;9.40;7.60;;;;;;;;;;108157;1279;22535;-35
2022/12/03 04:03:02;;;;;;;9.60;7.30;;;;;;;;;;108167;1277;22578;-35
2022/12/03 04:05:37;;;;;;;9.50;7.60;;;;;;;;;;108193;1269;22557;-35
2022/12/03 04:08:10;;;;;;;10.90;8.00;;;;;;;;;;108200;1278;22575;-35
2022/12/03 04:13:32;;;;;;;9.50;7.20;;;;;;;;;;108138;1276;22772;-35
2022/12/03 04:16:10;;;;;;;10.50;7.50;;;;;;;;;;108178;1278;22584;-35
2022/12/03 04:18:42;;;;;;;9.10;7.30;;;;;;;;;;108118;1277;22562;-35
2022/12/03 04:24:10;;;;;;;9.50;7.70;;;;;;;;;;108212;1272;22584;-35
2022/12/03 04:29:35;;;;;;;10.20;7.10;;;;;;;;;;108188;1275;22617;-35
2022/12/03 04:37:48;;;;;;;9.40;7.20;;;;;;;;;;108182;1277;22582;-35
2022/12/03 04:43:11;;;;;;;9.10;6.70;;;;;;;;;;108232;1272;22598;-35
2022/12/03 04:45:46;;;;;;;9.20;7.20;;;;;;;;;;108231;1279;25262;-35
2022/12/03 04:48:20;;;;;;;9.60;7.10;;;;;;;;;;108213;1278;25239;-35
2022/12/03 04:50:52;;;;;;;9.30;7.40;;;;;;;;;;108136;1277;22590;-35
2022/12/03 04:53:24;;;;;;;9.40;6.90;;;;;;;;;;108197;1278;22578;-35
2022/12/03 04:55:57;;;;;;;10.20;7.20;;;;;;;;;;108151;1277;22603;-35
2022/12/03 04:58:29;;;;;;;8.90;6.60;;;;;;;;;;108164;1277;22723;-34
2022/12/03 05:01:02;;;;;;;9.50;7.00;;;;;;;;;;108195;1276;22600;-34
2022/12/03 05:03:34;;;;;;;8.60;7.10;;;;;;;;;;108235;1262;22594;-34
2022/12/03 05:06:08;;;;;;;8.80;6.90;;;;;;;;;;108267;1274;22738;-34
2022/12/03 05:08:40;;;;;;;9.30;7.00;;;;;;;;;;108275;1268;22591;-34
2022/12/03 05:11:12;;;;;;;10.00;7.10;;;;;;;;;;108194;1275;22593;-34
2022/12/03 05:13:45;;;;;;;10.30;6.80;;;;;;;;;;108229;1278;22539;-34
2022/12/03 05:16:17;;;;;;;9.50;6.70;;;;;;;;;;108229;1277;22591;-34
2022/12/03 05:18:50;;;;;;;10.40;7.20;;;;;;;;;;108179;1273;22588;-34
2022/12/03 05:21:22;;;;;;;10.70;6.90;;;;;;;;;;108154;1277;22555;-34
2022/12/03 05:23:56;;;;;;;8.60;6.70;;;;;;;;;;108207;1277;22168;-34
2022/12/03 05:26:29;;;;;;;9.10;6.50;;;;;;;;;;108236;1275;22564;-34
2022/12/03 05:29:05;;;;;;;8.90;6.50;;;;;;;;;;108216;1277;22624;-34
2022/12/03 05:31:39;;;;;;;8.20;6.20;;;;;;;;;;108158;1278;22584;-34
2022/12/03 05:34:11;;;;;;;9.30;6.50;;;;;;;;;;108147;1277;25227;-34
2022/12/03 05:36:43;;;;;;;9.50;6.60;;;;;;;;;;108170;1276;22611;-34
2022/12/03 05:39:16;;;;;;;8.00;6.50;;;;;;;;;;108142;1277;22711;-34
2022/12/03 05:44:38;;;;;;;8.50;6.60;;;;;;;;;;108216;1275;22572;-34
2022/12/03 05:47:13;;;;;;;8.10;6.40;;;;;;;;;;108245;1277;22562;-34
2022/12/03 05:49:45;;;;;;;9.20;6.80;;;;;;;;;;108225;1278;22588;-34
2022/12/03 05:52:18;;;;;;;8.60;6.70;;;;;;;;;;108115;1276;25489;-34
2022/12/03 05:54:50;;;;;;;8.90;6.60;;;;;;;;;;108215;1275;22585;-35
2022/12/03 05:57:22;;;;;;;8.40;6.50;;;;;;;;;;108164;1275;22566;-34
2022/12/03 05:59:54;;;;;;;8.70;6.10;;;;;;;;;;108144;1278;22561;-34
2022/12/03 06:02:33;;;;;;;8.70;7.30;;;;;;;;;;108168;1278;22722;-34
2022/12/03 06:05:11;;;;;;;8.80;6.30;;;;;;;;;;108213;1275;22555;-34
2022/12/03 06:07:44;;;;;;;9.60;6.50;;;;;;;;;;108244;1273;22569;-34
2022/12/03 06:10:20;;;;;;;8.70;6.60;;;;;;;;;;108227;1277;22557;-35
2022/12/03 06:12:53;;;;;;;8.20;6.50;;;;;;;;;;108131;1278;22594;-34
2022/12/03 06:15:28;;;;;;;7.80;6.40;;;;;;;;;;108149;1275;22572;-34
2022/12/03 06:18:03;;;;;;;8.80;6.70;;;;;;;;;;108157;1273;22598;-34
2022/12/03 06:20:36;;;;;;;8.70;6.70;;;;;;;;;;108173;1279;22588;-34
2022/12/03 06:23:10;;;;;;;8.30;6.50;;;;;;;;;;108128;1278;22565;-34
2022/12/03 06:25:45;;;;;;;8.40;6.50;;;;;;;;;;108239;1272;22565;-34
2022/12/03 06:28:18;;;;;;;7.60;6.30;;;;;;;;;;108233;1270;24906;-34
2022/12/03 06:30:50;;;;;;;8.40;6.80;;;;;;;;;;108241;1278;22641;-34
2022/12/03 06:33:23;;;;;;;7.90;6.10;;;;;;;;;;108113;1278;22588;-34
2022/12/03 06:35:55;;;;;;;8.80;6.20;;;;;;;;;;108159;1272;22670;-34
2022/12/03 06:38:27;;;;;;;8.40;6.20;;;;;;;;;;108155;1279;22674;-33
2022/12/03 06:41:01;;;;;;;7.80;6.40;;;;;;;;;;108146;1271;22562;-34
2022/12/03 06:43:34;;;;;;;7.90;6.10;;;;;;;;;;108187;1276;22587;-34
2022/12/03 06:46:06;;;;;;;;;;;;;;;;;;108217;1277;22687;-35
2022/12/03 06:48:42;;;;;;;8.50;6.60;;;;;;;;;;108204;1272;22572;-35
2022/12/03 06:51:15;;;;;;;7.80;6.30;;;;;;;;;;108201;1271;22557;-35
2022/12/03 06:53:48;;;;;;;8.90;6.30;;;;;;;;;;108119;1275;25231;-35
2022/12/03 06:56:20;;;;;;;8.00;6.20;;;;;;;;;;108163;1278;22562;-35
2022/12/03 06:58:53;;;;;;;8.70;6.80;;;;;;;;;;108064;1275;153076;-35
2022/12/03 07:01:25;;;;;;;7.60;5.70;;;;;;;;;;108169;1274;22565;-34
2022/12/03 07:03:57;;;;;;;8.20;6.60;;;;;;;;;;108168;1275;22558;-35
2022/12/03 07:06:30;;;;;;;8.30;6.50;;;;;;;;;;108212;1272;25569;-35
2022/12/03 07:09:02;;;;;;;7.10;5.80;;;;;;;;;;108231;1278;22571;-35
2022/12/03 07:11:39;;;;;;;8.00;6.60;;;;;;;;;;108231;1272;22561;-35
2022/12/03 07:14:14;;;;;;;8.00;6.10;;;;;;;;;;108125;1278;25451;-35
2022/12/03 07:16:47;;;;;;;8.10;6.40;;;;;;;;;;108177;1273;22564;-35
2022/12/03 07:19:19;;;;;;;8.40;6.50;;;;;;;;;;108185;1278;22543;-35
2022/12/03 07:21:53;;;;;;;8.80;6.50;;;;;;;;;;108150;1275;22689;-35
2022/12/03 07:24:25;;;;;;;9.50;6.60;;;;;;;;;;108210;1278;22563;-35
2022/12/03 07:26:58;;;;;;;7.70;6.50;;;;;;;;;;108224;1278;25208;-35
2022/12/03 07:29:32;;;;;;;7.80;6.70;;;;;;;;;;108207;1272;22605;-35
2022/12/03 07:32:05;;;;;;;8.20;6.30;;;;;;;;;;108215;1271;22583;-35
2022/12/03 07:34:38;;;;;;;9.40;6.60;;;;;;;;;;108153;1271;25275;-33
2022/12/03 07:37:10;;;;;;;8.80;6.30;;;;;;;;;;108172;1272;22584;-33
2022/12/03 07:39:43;;;;;;;8.50;6.60;;;;;;;;;;108167;1279;22621;-34
2022/12/03 07:42:15;;;;;;;8.40;7.20;;;;;;;;;;108192;1271;22572;-35
2022/12/03 07:44:50;;;;;;;8.10;6.40;;;;;;;;;;108196;1270;22561;-34
2022/12/03 07:47:22;;;;;;;7.80;6.30;;;;;;;;;;108247;1266;22563;-35
2022/12/03 07:49:55;;;;;;;7.90;6.60;;;;;;;;;;108210;1275;22587;-35
2022/12/03 07:52:30;;;;;;;7.80;6.10;;;;;;;;;;108229;1272;22539;-35
2022/12/03 07:55:02;;;;;;;7.90;6.20;;;;;;;;;;108125;1277;22569;-35
2022/12/03 07:57:34;;;;;;;8.90;6.50;;;;;;;;;;108169;1277;22565;-35
2022/12/03 08:00:11;;;;;;;7.70;6.00;;;;;;;;;;108146;1272;22564;-37
2022/12/03 08:02:44;;;;;;;8.10;6.40;;;;;;;;;;108174;1271;24305;-36
2022/12/03 08:05:19;;;;;;;7.80;6.30;;;;;;;;;;108213;1278;22802;-35
2022/12/03 08:07:54;;;;;;;7.60;6.20;;;;;;;;;;108265;1275;22657;-35
2022/12/03 08:10:27;;;;;;;8.70;6.60;;;;;;;;;;108255;1278;22564;-34
2022/12/03 08:13:01;;;;;;;7.70;6.20;;;;;;;;;;108266;1277;22587;-35
2022/12/03 08:15:34;;;;;;;8.00;6.50;;;;;;;;;;108109;1272;22754;-35
2022/12/03 08:18:16;;;;;;;7.80;6.50;;;;;;;;;;108179;1271;22568;-35
2022/12/03 08:20:53;;;;;;;8.40;6.90;;;;;;;;;;108128;1277;25570;-34
2022/12/03 08:23:26;;;;;;;9.40;7.10;;;;;;;;;;108179;1277;22777;-35
2022/12/03 08:26:00;;;;;;;8.80;6.90;;;;;;;;;;108219;1271;22805;-35
2022/12/03 08:28:36;;;;;;;9.30;7.30;;;;;;;;;;108217;1272;22647;-34
2022/12/03 08:31:22;;;;;;;9.30;7.10;;;;;;;;;;108226;1275;22571;-34
2022/12/03 08:33:59;;;;;;;9.60;7.10;;;;;;;;;;108190;1274;22571;-35
2022/12/03 08:36:43;;;;;;;9.10;7.00;;;;;;;;;;108189;1271;22562;-35
2022/12/03 08:39:36;;;;;;;9.00;7.20;;;;;;;;;;108158;1279;22560;-35
2022/12/03 08:45:42;;;;;;;9.60;7.30;;;;;;;;;;108138;1271;22586;-34
2022/12/03 08:48:49;;;;;;;9.40;7.50;;;;;;;;;;108241;1271;22567;-34
2022/12/03 08:51:27;;;;;;;8.40;7.40;;;;;;;;;;108228;1275;22584;-35
2022/12/03 08:54:07;;;;;;;9.20;7.50;;;;;;;;;;108263;1272;22717;-34
2022/12/03 08:56:41;;;;;;;8.70;7.30;;;;;;;;;;108154;1278;22566;-34
2022/12/03 08:59:34;;;;;;;9.50;7.50;;;;;;;;;;108145;1278;22681;-30
2022/12/03 09:02:42;;;;;;;9.10;7.30;;;;;;;;;;108122;1272;22575;-30
2022/12/03 09:05:26;;;;;;;9.10;7.60;;;;;;;;;;108085;1274;22768;-35
2022/12/03 09:08:01;;;;;;;8.60;7.50;;;;;;;;;;108232;1273;22608;-35
2022/12/03 09:10:39;;;;;;;9.90;7.90;;;;;;;;;;108211;1271;22567;-32
2022/12/03 09:13:14;;;;;;;8.90;7.70;;;;;;;;;;108197;1278;22576;-32
2022/12/03 09:15:48;;;;;;;8.50;6.80;;;;;;;;;;108141;1271;22601;-32
2022/12/03 09:18:22;;;;;;;9.00;8.00;;;;;;;;;;108161;1271;22574;-32
2022/12/03 09:20:55;;;;;;;9.00;7.50;;;;;;;;;;108143;1275;22574;-31
2022/12/03 09:23:27;;;;;;;8.40;7.60;;;;;;;;;;108164;1275;22574;-31
2022/12/03 09:26:00;;;;;;;8.50;7.60;;;;;;;;;;108208;1275;22702;-32
2022/12/03 09:28:33;;;;;;;8.70;7.50;;;;;;;;;;108253;1272;22621;-32
2022/12/03 09:31:05;;;;;;;9.10;7.60;;;;;;;;;;108232;1272;22659;-32
2022/12/03 09:33:38;;;;;;;9.20;7.70;;;;;;;;;;108252;1272;22558;-33
2022/12/03 09:36:11;;;;;;;8.50;7.40;;;;;;;;;;108180;1262;22582;-33
2022/12/03 09:38:43;;;;;;;8.80;7.50;;;;;;;;;;108162;1271;22578;-35
2022/12/03 09:41:16;;;;;;;9.10;7.40;;;;;;;;;;108167;1268;25411;-35
2022/12/03 09:43:49;;;;;;;9.00;7.40;;;;;;;;;;108166;1271;22576;-35
2022/12/03 09:46:25;;;;;;;8.70;7.70;;;;;;;;;;108157;1271;24346;-35
2022/12/03 09:48:58;;;;;;;9.00;7.30;;;;;;;;;;108219;1272;25461;-34
2022/12/03 09:51:36;;;;;;;8.70;7.60;;;;;;;;;;108261;1273;22613;-34
2022/12/03 09:54:15;;;;;;;7.90;7.00;;;;;;;;;;108268;1272;22565;-35
2022/12/03 09:56:47;;;;;;;8.40;7.30;;;;;;;;;;108168;1274;22568;-35
2022/12/03 09:59:20;;;;;;;8.20;7.20;;;;;;;;;;108129;1278;22571;-31
2022/12/03 10:01:56;;;;;;;9.80;7.30;;;;;;;;;;108147;1277;22576;-31
2022/12/03 10:04:29;;;;;;;8.10;7.20;;;;;;;;;;108158;1271;22588;-31
2022/12/03 10:07:04;;;;;;;8.70;7.30;;;;;;;;;;108193;1271;24185;-31
2022/12/03 10:09:36;;;;;;;8.90;7.60;;;;;;;;;;108184;1273;22580;-31
2022/12/03 10:12:15;;;;;;;9.50;7.50;;;;;;;;;;108227;1272;22713;-31
2022/12/03 10:14:47;;;;;;;9.00;7.60;;;;;;;;;;108235;1272;22564;-31
2022/12/03 10:17:23;;;;;;;8.80;7.60;;;;;;;;;;108129;1275;23062;-31
2022/12/03 10:19:58;;;;;;;9.20;7.50;;;;;;;;;;108128;1273;22633;-32
2022/12/03 10:22:36;;;;;;;8.70;7.70;;;;;;;;;;108144;1271;22568;-32
2022/12/03 10:25:13;;;;;;;9.40;7.70;;;;;;;;;;108131;1271;22558;-32
2022/12/03 10:28:00;;;;;;;9.10;7.90;;;;;;;;;;108099;1272;22552;-30
2022/12/03 10:30:36;;;;;;;9.50;8.40;;;;;;;;;;108208;1275;22562;-29
2022/12/03 10:33:16;;;;;;;9.70;8.20;;;;;;;;;;108222;1275;22619;-33
2022/12/03 10:39:18;;;;;;;9.30;7.80;;;;;;;;;;108108;1275;22572;-31
2022/12/03 10:41:53;;;;;;;9.10;7.70;;;;;;;;;;108133;1274;22614;-31
2022/12/03 10:44:29;;;;;;;9.30;8.20;;;;;;;;;;108168;1271;25313;-34
2022/12/03 10:47:11;;;;;;;10.20;8.80;;;;;;;;;;108015;1271;22566;-32
2022/12/03 10:49:47;;;;;;;10.30;8.30;;;;;;;;;;108175;1272;22567;-30
2022/12/03 10:52:26;;;;;;;9.60;8.20;;;;;;;;;;108168;1271;22562;-31
2022/12/03 10:55:02;;;;;;;10.10;8.00;;;;;;;;;;108137;1272;22593;-30
2022/12/03 10:57:39;;;;;;;11.10;9.10;;;;;;;;;;108112;1271;22608;-32
2022/12/03 11:00:21;;;;;;;10.40;9.00;;;;;;;;;;108074;1272;22568;-30
2022/12/03 11:02:54;;;;;;;9.50;8.50;;;;;;;;;;108109;1271;22705;-31
2022/12/03 11:05:33;;;;;;;10.10;9.10;;;;;;;;;;108102;1272;22610;-30
2022/12/03 11:08:17;;;;;;;9.70;8.70;;;;;;;;;;108084;1274;22701;-30
2022/12/03 11:11:02;;;;;;;;;;;;;;;;;;108251;1275;22554;-32
2022/12/03 11:13:56;;;;;;;11.30;9.50;;;;;;;;;;108297;1272;22582;-31
2022/12/03 11:17:10;;;;;;;11.40;10.20;;;;;;;;;;108243;1271;22574;-33
2022/12/03 11:19:51;;;;;;;10.30;9.20;;;;;;;;;;108056;1278;22553;-30
2022/12/03 11:22:48;;;;;;;11.90;10.00;;;;;;;;;;108096;1279;22510;-30
2022/12/03 11:25:51;;;;;;;11.50;9.70;;;;;;;;;;108165;1274;22578;-31
2022/12/03 11:28:39;;;;;;;;;;;;;;;;;;108124;1271;22565;-30
2022/12/03 11:34:52;;;;;;;13.50;12.10;;;;;;;;;;108211;1266;22560;-30
2022/12/03 11:37:31;;;;;;;26.30;23.50;;;;;;;;;;108163;1271;22597;-30
2022/12/03 11:40:36;;;;;;;26.60;23.90;;;;;;;;;;108155;1271;22569;-31
2022/12/03 11:43:13;;;;;;;22.80;20.50;;;;;;;;;;108158;1271;22584;-32
2022/12/03 11:45:49;;;;;;;21.40;19.20;;;;;;;;;;108187;1271;22562;-32
2022/12/03 11:48:22;;;;;;;21.90;19.50;;;;;;;;;;108148;1269;22558;-31
2022/12/03 11:50:58;;;;;;;;;;;;;;;;;;108221;1271;22731;-32
2022/12/03 11:53:53;;;;;;;21.70;19.50;;;;;;;;;;108217;1272;22575;-32
2022/12/03 12:00:04;;;;;;;22.20;19.70;;;;;;;;;;108108;1279;22587;-32
2022/12/03 12:02:42;;;;;;;21.70;19.50;;;;;;;;;;107648;1279;164503;-32
2022/12/03 12:05:36;;;;;;;21.50;19.30;;;;;;;;;;108117;1274;25416;-29
2022/12/03 12:08:20;;;;;;;22.30;20.00;;;;;;;;;;108114;1273;22572;-29
2022/12/03 12:10:58;;;;;;;21.20;19.00;;;;;;;;;;108228;1272;22600;-29
2022/12/03 12:13:59;;;;;;;19.40;17.40;;;;;;;;;;108116;1271;22585;-31
2022/12/03 12:16:50;;;;;;;20.10;17.80;;;;;;;;;;108111;1272;22578;-31
2022/12/03 12:20:14;;;;;;;19.20;17.20;;;;;;;;;;108131;1271;25409;-30
2022/12/03 12:22:48;;;;;;;19.70;17.70;;;;;;;;;;108084;1278;22766;-29
2022/12/03 12:25:42;;;;;;;19.00;17.00;;;;;;;;;;108188;1272;22561;-30
2022/12/03 12:31:42;;;;;;;19.60;17.50;;;;;;;;;;108026;1275;22602;-30
2022/12/03 12:34:29;;;;;;;19.40;17.50;;;;;;;;;;108090;1265;22559;-29
2022/12/03 12:37:04;;;;;;;19.10;15.90;;;;;;;;;;107859;1274;25978;-30
2022/12/03 12:39:38;;;;;;;18.30;15.30;;;;;;;;;;107906;1268;22576;-33
2022/12/03 12:42:34;;;;;;;16.80;15.00;;;;;;;;;;107855;1274;24837;-35
2022/12/03 12:45:23;;;;;;;17.80;16.00;;;;;;;;;;108065;1274;22590;-35
2022/12/03 12:48:14;;;;;;;17.20;14.50;;;;;;;;;;107906;1272;22577;-35
2022/12/03 12:50:49;;;;;;;16.60;14.80;;;;;;;;;;107839;1274;22565;-35
2022/12/03 12:54:16;;;;;;;16.40;14.60;;;;;;;;;;108444;1272;22759;-35
2022/12/03 12:56:55;;;;;;;16.20;14.20;;;;;;;;;;107975;1275;22560;-35
2022/12/03 12:59:36;;;;;;;15.80;14.10;;;;;;;;;;107944;1275;22724;-36
2022/12/03 13:02:46;;;;;;;15.50;13.90;;;;;;;;;;107958;1274;22643;-35
2022/12/03 13:06:13;;;;;;;15.70;14.10;;;;;;;;;;108139;1272;22578;-34
2022/12/03 13:08:50;;;;;;;16.00;13.90;;;;;;;;;;108168;1274;22566;-36
2022/12/03 13:11:40;;;;;;;14.40;12.90;;;;;;;;;;108137;1274;22567;-37
2022/12/03 13:17:26;;;;;;;15.20;13.60;;;;;;;;;;108108;1274;22570;-36
2022/12/03 13:20:35;;;;;;;14.40;12.40;;;;;;;;;;108151;1278;22598;-34
2022/12/03 13:26:44;;;;;;;14.30;12.80;;;;;;;;;;108168;1275;24849;-35
2022/12/03 13:29:24;;;;;;;14.60;13.00;;;;;;;;;;108171;1272;22615;-35
2022/12/03 13:32:14;;;;;;;13.80;12.40;;;;;;;;;;108128;1272;22562;-35
2022/12/03 13:34:49;;;;;;;15.00;13.00;;;;;;;;;;108176;1275;22569;-38
2022/12/03 13:37:26;;;;;;;14.10;12.70;;;;;;;;;;108157;1275;22647;-35
2022/12/03 13:40:08;;;;;;;13.80;12.10;;;;;;;;;;108172;1278;22577;-35
2022/12/03 13:42:41;;;;;;;13.70;12.10;;;;;;;;;;108125;1272;22591;-35
2022/12/03 13:45:39;;;;;;;13.00;11.60;;;;;;;;;;108161;1275;22726;-35
2022/12/03 13:48:21;;;;;;;14.90;12.60;;;;;;;;;;108160;1278;25456;-35
2022/12/03 13:50:57;;;;;;;13.30;11.90;;;;;;;;;;108130;1272;22574;-35
2022/12/03 13:54:07;;;;;;;14.10;11.90;;;;;;;;;;108138;1278;25285;-35
2022/12/03 13:56:40;;;;;;;14.30;12.10;;;;;;;;;;108168;1272;22570;-35
2022/12/03 13:59:13;;;;;;;15.10;11.50;;;;;;;;;;108171;1274;24846;-35
2022/12/03 14:04:54;;;;;;;13.90;12.10;;;;;;;;;;108163;1272;24838;-35
2022/12/03 14:07:27;;;;;;;13.50;11.60;;;;;;;;;;108158;1265;22578;-42
2022/12/03 14:10:00;;;;;;;13.30;11.90;;;;;;;;;;108129;1272;22569;-34
2022/12/03 14:12:39;;;;;;;12.60;11.20;;;;;;;;;;108133;1279;22579;-35
2022/12/03 14:15:26;;;;;;;13.30;11.30;;;;;;;;;;108178;1278;22569;-35
2022/12/03 14:21:03;;;;;;;17.60;12.20;;;;;;;;;;104685;1311;548985;-35
2022/12/03 14:23:43;;;;;;;12.50;11.00;;;;;;;;;;107902;1279;22583;-34
2022/12/03 14:26:18;;;;;;;12.70;11.00;;;;;;;;;;107884;1278;22577;-35
2022/12/03 14:28:51;;;;;;;13.20;11.60;;;;;;;;;;107922;1278;22627;-35
2022/12/03 14:31:23;;;;;;;13.40;10.70;;;;;;;;;;107871;1278;22547;-35
2022/12/03 14:34:01;;;;;;;13.20;11.30;;;;;;;;;;107670;1284;353112;-34
2022/12/03 14:36:33;;;;;;;14.90;11.90;;;;;;;;;;108073;1277;22568;-34
2022/12/03 14:39:14;;;;;;;13.10;11.70;;;;;;;;;;108668;1264;23971;-34
2022/12/03 14:44:39;;;;;;;14.60;11.70;;;;;;;;;;108655;1265;22715;-35
2022/12/03 14:47:13;;;;;;;12.90;11.50;;;;;;;;;;108647;1265;25415;-35
2022/12/03 14:49:46;;;;;;;;;;;;;;;;;;108693;1263;25409;-35
2022/12/03 14:52:20;;;;;;;13.10;11.30;;;;;;;;;;108565;1264;25343;-35
2022/12/03 14:54:52;;;;;;;12.80;11.00;;;;;;;;;;108651;1265;22564;-34
2022/12/03 14:57:30;;;;;;;13.10;11.60;;;;;;;;;;108633;1264;22640;-36
2022/12/03 15:00:16;;;;;;;12.30;10.90;;;;;;;;;;108638;1266;22563;-35
2022/12/03 15:02:52;;;;;;;13.10;11.10;;;;;;;;;;108706;1272;25235;-32
2022/12/03 15:05:25;;;;;;;14.60;10.70;;;;;;;;;;108628;1264;22639;-31
2022/12/03 15:07:57;;;;;;;12.50;10.90;;;;;;;;;;108617;1271;25302;-32
2022/12/03 15:10:32;;;;;;;13.20;11.00;;;;;;;;;;108635;1264;22624;-33
2022/12/03 15:16:29;;;;;;;11.80;10.50;;;;;;;;;;108598;1265;24830;-32
2022/12/03 15:20:07;;;;;;;14.10;11.00;;;;;;;;;;108436;1268;24828;-35
2022/12/03 15:22:40;;;;;;;12.70;11.00;;;;;;;;;;108589;1265;25271;-33
2022/12/03 15:25:14;;;;;;;13.70;11.50;;;;;;;;;;108652;1266;24878;-33
2022/12/03 15:27:57;;;;;;;13.90;11.30;;;;;;;;;;108670;1269;22578;-33
2022/12/03 15:30:30;;;;;;;14.10;11.20;;;;;;;;;;108621;1265;25268;-33
2022/12/03 15:33:18;;;;;;;14.20;12.10;;;;;;;;;;108581;1266;22557;-33
2022/12/03 15:35:56;;;;;;;13.60;11.50;;;;;;;;;;108597;1266;22565;-33
2022/12/03 15:38:29;;;;;;;13.10;10.80;;;;;;;;;;108605;1265;25229;-33
2022/12/03 15:41:19;;;;;;;13.10;11.40;;;;;;;;;;108609;1264;22557;-33
2022/12/03 15:44:02;;;;;;;13.10;11.40;;;;;;;;;;108550;1265;24839;-33
2022/12/03 15:46:37;;;;;;;11.90;10.60;;;;;;;;;;108594;1265;22568;-33
2022/12/03 15:49:20;;;;;;;13.40;11.70;;;;;;;;;;108608;1264;22576;-35
2022/12/03 15:51:53;;;;;;;13.00;11.60;;;;;;;;;;108592;1264;22629;-34
2022/12/03 15:54:26;;;;;;;13.00;11.10;;;;;;;;;;108619;1265;22572;-33
2022/12/03 16:00:11;;;;;;;13.40;11.50;;;;;;;;;;108597;1266;22603;-32
2022/12/03 16:02:53;;;;;;;13.30;11.20;;;;;;;;;;108614;1265;22565;-31
2022/12/03 16:05:30;;;;;;;12.80;10.80;;;;;;;;;;108636;1266;22570;-32
2022/12/03 16:08:02;;;;;;;13.10;11.00;;;;;;;;;;108664;1265;22557;-32
2022/12/03 16:10:52;;;;;;;13.20;11.80;;;;;;;;;;108637;1266;22662;-33
2022/12/03 16:16:33;;;;;;;12.40;10.90;;;;;;;;;;108618;1265;22550;-33
2022/12/03 16:19:30;;;;;;;12.80;11.30;;;;;;;;;;108592;1265;25208;-33
2022/12/03 16:22:02;;;;;;;12.50;10.60;;;;;;;;;;108626;1264;22561;-35